createdAt,value
2018-08-12T00:00:20.254Z,68.90
2018-08-12T00:02:49.139Z,69.20
2018-08-12T00:05:17.949Z,69.60
2018-08-12T00:07:47.075Z,69.90
2018-08-12T00:10:15.985Z,68.80
2018-08-12T00:12:44.800Z,69.70
2018-08-12T00:15:15.799Z,68.90
2018-08-12T00:17:44.595Z,68.60
2018-08-12T00:20:22.232Z,68.40
2018-08-12T00:22:51.420Z,68.30
2018-08-12T00:25:21.781Z,68.40
2018-08-12T00:27:50.623Z,68.50
2018-08-12T00:30:20.193Z,68.70
2018-08-12T00:32:49.003Z,69.10
2018-08-12T00:35:19.128Z,68.80
2018-08-12T00:37:47.963Z,68.80
2018-08-12T00:40:17.812Z,70.00
2018-08-12T00:42:47.013Z,68.10
2018-08-12T00:45:17.669Z,68.30
2018-08-12T00:47:46.652Z,68.10
2018-08-12T00:50:16.305Z,68.70
2018-08-12T00:52:45.167Z,68.70
2018-08-12T00:55:17.342Z,68.80
2018-08-12T00:57:46.941Z,70.00
2018-08-12T01:00:19.255Z,69.10
2018-08-12T01:02:48.082Z,68.20
2018-08-12T01:05:17.928Z,68.30
2018-08-12T01:07:47.956Z,68.50
2018-08-12T01:10:17.447Z,68.50
2018-08-12T01:12:46.308Z,69.10
2018-08-12T01:15:16.945Z,68.10
2018-08-12T01:17:46.043Z,68.10
2018-08-12T01:20:19.025Z,70.50
2018-08-12T01:22:47.827Z,70.10
2018-08-12T01:25:16.662Z,68.30
2018-08-12T01:27:45.515Z,67.10
2018-08-12T01:30:16.812Z,68.10
2018-08-12T01:32:46.189Z,68.50
2018-08-12T01:35:15.644Z,68.10
2018-08-12T01:37:45.240Z,67.50
2018-08-12T01:40:15.507Z,67.60
2018-08-12T01:42:44.869Z,68.40
2018-08-12T01:45:15.509Z,68.60
2018-08-12T01:47:44.311Z,67.90
2018-08-12T01:50:14.827Z,68.40
2018-08-12T01:52:43.698Z,68.40
2018-08-12T01:55:12.519Z,68.70
2018-08-12T01:57:41.349Z,68.40
2018-08-12T02:00:14.476Z,67.30
2018-08-12T02:02:43.365Z,67.50
2018-08-12T02:05:12.179Z,68.10
2018-08-12T02:07:41.166Z,67.30
2018-08-12T02:10:10.817Z,69.20
2018-08-12T02:12:40.014Z,69.20
2018-08-12T02:15:09.877Z,67.10
2018-08-12T02:17:38.820Z,67.30
2018-08-12T02:20:08.447Z,67.00
2018-08-12T02:22:37.884Z,67.60
2018-08-12T02:25:07.130Z,67.70
2018-08-12T02:27:36.020Z,68.20
2018-08-12T02:30:05.403Z,67.80
2018-08-12T02:32:34.217Z,69.40
2018-08-12T02:35:03.195Z,67.70
2018-08-12T02:37:32.043Z,67.30
2018-08-12T02:40:00.842Z,67.60
2018-08-12T02:42:29.678Z,68.60
2018-08-12T02:44:58.540Z,69.20
2018-08-12T02:47:27.364Z,69.50
2018-08-12T02:49:56.179Z,68.60
2018-08-12T02:52:25.060Z,68.80
2018-08-12T02:54:53.896Z,67.30
2018-08-12T02:57:22.720Z,67.70
2018-08-12T02:59:51.569Z,68.20
2018-08-12T03:02:20.375Z,68.60
2018-08-12T03:04:49.224Z,68.30
2018-08-12T03:07:18.070Z,68.30
2018-08-12T03:09:46.957Z,69.50
2018-08-12T03:12:15.768Z,68.90
2018-08-12T03:14:44.642Z,68.80
2018-08-12T03:17:13.466Z,69.00
2018-08-12T03:19:42.276Z,68.60
2018-08-12T03:22:11.153Z,68.80
2018-08-12T03:24:40.061Z,69.00
2018-08-12T03:27:08.863Z,68.50
2018-08-12T03:29:37.716Z,68.80
2018-08-12T03:32:06.520Z,68.30
2018-08-12T03:34:35.360Z,68.10
2018-08-12T03:37:04.288Z,68.10
2018-08-12T03:39:33.087Z,68.80
2018-08-12T03:42:01.903Z,68.60
2018-08-12T03:44:30.763Z,69.10
2018-08-12T03:46:59.591Z,68.60
2018-08-12T03:49:28.410Z,68.40
2018-08-12T03:51:57.311Z,68.60
2018-08-12T03:54:26.134Z,68.40
2018-08-12T03:56:54.959Z,68.30
2018-08-12T03:59:24.089Z,69.40
2018-08-12T04:01:52.949Z,70.50
2018-08-12T04:04:21.868Z,68.20
2018-08-12T04:06:50.731Z,68.30
2018-08-12T04:09:19.537Z,69.00
2018-08-12T04:11:48.341Z,67.10
2018-08-12T04:14:17.432Z,68.30
2018-08-12T04:16:50.704Z,68.40
2018-08-12T04:19:19.600Z,69.30
2018-08-12T04:21:48.400Z,67.70
2018-08-12T04:24:17.208Z,68.50
2018-08-12T04:26:46.056Z,68.90
2018-08-12T04:29:14.889Z,67.80
2018-08-12T04:31:43.803Z,67.10
2018-08-12T04:34:12.666Z,67.90
2018-08-12T04:36:41.553Z,67.30
2018-08-12T04:39:12.574Z,67.70
2018-08-12T04:41:42.416Z,65.80
2018-08-12T04:44:11.562Z,66.40
2018-08-12T04:46:40.507Z,66.30
2018-08-12T04:49:10.162Z,66.90
2018-08-12T04:51:39.361Z,65.60
2018-08-12T04:54:08.608Z,66.00
2018-08-12T04:56:37.426Z,65.80
2018-08-12T04:59:06.564Z,64.90
2018-08-12T05:01:35.486Z,66.20
2018-08-12T05:04:04.331Z,65.10
2018-08-12T05:06:33.136Z,66.40
2018-08-12T05:09:01.995Z,65.20
2018-08-12T05:11:30.824Z,65.30
2018-08-12T05:13:59.636Z,65.00
2018-08-12T05:16:28.563Z,63.20
2018-08-12T05:18:57.398Z,63.60
2018-08-12T05:21:26.212Z,63.40
2018-08-12T05:23:55.060Z,63.90
2018-08-12T05:26:23.881Z,63.80
2018-08-12T05:28:52.931Z,61.90
2018-08-12T05:31:21.935Z,63.50
2018-08-12T05:33:51.356Z,62.60
2018-08-12T05:36:21.294Z,61.60
2018-08-12T05:38:50.231Z,62.00
2018-08-12T05:41:19.047Z,61.10
2018-08-12T05:43:47.857Z,61.50
2018-08-12T05:46:16.702Z,61.20
2018-08-12T05:48:45.706Z,61.40
2018-08-12T05:51:14.592Z,60.30
2018-08-12T05:53:43.397Z,60.90
2018-08-12T05:56:12.213Z,60.60
2018-08-12T05:58:41.236Z,59.60
2018-08-12T06:01:10.161Z,59.30
2018-08-12T06:03:38.976Z,60.70
2018-08-12T06:06:07.793Z,59.20
2018-08-12T06:08:36.711Z,59.40
2018-08-12T06:11:05.532Z,59.70
2018-08-12T06:13:34.392Z,58.90
2018-08-12T06:16:03.280Z,58.80
2018-08-12T06:18:32.107Z,58.20
2018-08-12T06:21:00.916Z,59.10
2018-08-12T06:23:30.136Z,58.60
2018-08-12T06:25:58.944Z,58.40
2018-08-12T06:28:28.303Z,58.00
2018-08-12T06:30:57.195Z,57.70
2018-08-12T06:33:26.025Z,58.10
2018-08-12T06:35:54.861Z,59.80
2018-08-12T06:38:23.706Z,58.80
2018-08-12T06:40:52.516Z,59.00
2018-08-12T06:43:21.330Z,58.50
2018-08-12T06:45:50.193Z,58.10
2018-08-12T06:48:19.009Z,58.40
2018-08-12T06:50:47.815Z,58.30
2018-08-12T06:53:16.689Z,57.80
2018-08-12T06:55:45.502Z,57.40
2018-08-12T06:58:14.334Z,57.30
2018-08-12T07:00:43.247Z,57.00
2018-08-12T07:03:12.204Z,57.60
2018-08-12T07:05:41.075Z,57.80
2018-08-12T07:08:09.917Z,57.70
2018-08-12T07:10:38.824Z,57.20
2018-08-12T07:13:07.656Z,56.10
2018-08-12T07:15:36.508Z,56.00
2018-08-12T07:18:05.571Z,55.40
2018-08-12T07:20:34.408Z,54.80
2018-08-12T07:23:03.215Z,54.80
2018-08-12T07:25:32.508Z,54.50
2018-08-12T07:28:01.350Z,54.10
2018-08-12T07:30:30.203Z,54.00
2018-08-12T07:32:59.336Z,53.40
2018-08-12T07:35:28.097Z,53.40
2018-08-12T07:37:56.896Z,53.20
2018-08-12T07:40:25.797Z,52.70
2018-08-12T07:42:54.620Z,52.30
2018-08-12T07:45:23.449Z,52.10
2018-08-12T07:47:52.391Z,52.00
2018-08-12T07:50:21.242Z,51.90
2018-08-12T07:52:50.058Z,51.20
2018-08-12T07:55:18.936Z,51.00
2018-08-12T07:57:47.771Z,50.80
2018-08-12T08:00:18.563Z,50.70
2018-08-12T08:02:47.827Z,50.40
2018-08-12T08:05:16.753Z,50.30
2018-08-12T08:07:45.620Z,50.00
2018-08-12T08:10:16.600Z,50.00
2018-08-12T08:12:45.534Z,50.00
2018-08-12T08:15:16.829Z,49.90
2018-08-12T08:17:45.756Z,49.40
2018-08-12T08:20:15.442Z,49.60
2018-08-12T08:22:44.639Z,49.90
2018-08-12T08:25:13.667Z,49.50
2018-08-12T08:27:42.553Z,49.30
2018-08-12T08:30:13.412Z,49.20
2018-08-12T08:32:42.858Z,49.10
2018-08-12T08:35:12.675Z,49.00
2018-08-12T08:37:41.925Z,48.70
2018-08-12T08:40:14.218Z,48.70
2018-08-12T08:42:43.119Z,50.10
2018-08-12T08:45:18.295Z,50.40
2018-08-12T08:47:48.555Z,50.20
2018-08-12T08:50:18.987Z,50.50
2018-08-12T08:52:47.856Z,49.70
2018-08-12T08:55:17.650Z,49.60
2018-08-12T08:57:47.169Z,50.00
2018-08-12T09:00:19.314Z,49.60
2018-08-12T09:02:49.664Z,49.50
2018-08-12T09:05:19.075Z,49.40
2018-08-12T09:07:48.199Z,49.40
2018-08-12T09:10:18.146Z,48.80
2018-08-12T09:12:47.036Z,49.60
2018-08-12T09:15:17.715Z,50.40
2018-08-12T09:17:47.372Z,50.20
2018-08-12T09:20:19.408Z,50.10
2018-08-12T09:22:48.305Z,49.50
2018-08-12T09:25:17.408Z,49.30
2018-08-12T09:27:46.218Z,49.10
2018-08-12T09:30:17.076Z,49.10
2018-08-12T09:32:46.564Z,49.20
2018-08-12T09:35:15.392Z,49.10
2018-08-12T09:37:44.253Z,48.80
2018-08-12T09:40:15.704Z,48.70
2018-08-12T09:42:45.595Z,48.30
2018-08-12T09:45:17.355Z,48.80
2018-08-12T09:47:46.492Z,48.10
2018-08-12T09:50:18.648Z,48.20
2018-08-12T09:52:48.489Z,48.50
2018-08-12T09:55:17.865Z,49.70
2018-08-12T09:57:46.691Z,47.70
2018-08-12T10:00:22.864Z,47.70
2018-08-12T10:02:53.666Z,47.40
2018-08-12T10:05:22.626Z,48.20
2018-08-12T10:07:51.452Z,48.30
2018-08-12T10:10:20.828Z,48.50
2018-08-12T10:12:49.797Z,48.70
2018-08-12T10:15:18.736Z,49.60
2018-08-12T10:17:49.631Z,49.90
2018-08-12T10:20:19.756Z,50.10
2018-08-12T10:22:48.649Z,49.90
2018-08-12T10:25:17.478Z,50.00
2018-08-12T10:27:46.759Z,50.00
2018-08-12T10:30:16.109Z,49.00
2018-08-12T10:32:45.042Z,48.40
2018-08-12T10:35:15.445Z,48.80
2018-08-12T10:37:44.495Z,48.70
2018-08-12T10:40:15.229Z,49.20
2018-08-12T10:42:45.103Z,50.30
2018-08-12T10:45:14.214Z,50.20
2018-08-12T10:47:43.519Z,48.90
2018-08-12T10:50:14.785Z,48.30
2018-08-12T10:52:44.924Z,48.00
2018-08-12T10:55:15.169Z,47.60
2018-08-12T10:57:44.724Z,46.90
2018-08-12T11:00:16.632Z,46.50
2018-08-12T11:02:46.437Z,46.00
2018-08-12T11:05:16.002Z,45.90
2018-08-12T11:07:45.902Z,45.70
2018-08-12T11:10:15.190Z,46.10
2018-08-12T11:12:44.146Z,46.10
2018-08-12T11:15:13.042Z,46.20
2018-08-12T11:17:42.267Z,46.10
2018-08-12T11:20:11.424Z,46.40
2018-08-12T11:22:40.332Z,46.10
2018-08-12T11:25:10.927Z,46.10
2018-08-12T11:27:39.752Z,46.80
2018-08-12T11:30:12.904Z,46.90
2018-08-12T11:32:41.948Z,47.70
2018-08-12T11:35:13.476Z,47.40
2018-08-12T11:37:42.808Z,47.50
2018-08-12T11:40:12.680Z,47.80
2018-08-12T11:42:41.557Z,47.90
2018-08-12T11:45:14.701Z,48.10
2018-08-12T11:47:44.572Z,48.20
2018-08-12T11:50:13.919Z,48.40
2018-08-12T11:52:43.539Z,48.70
2018-08-12T11:55:13.658Z,48.80
2018-08-12T11:57:42.531Z,49.00
2018-08-12T12:00:14.352Z,48.90
2018-08-12T12:02:43.844Z,49.00
2018-08-12T12:05:13.453Z,49.00
2018-08-12T12:07:42.493Z,49.30
2018-08-12T12:10:14.719Z,49.00
2018-08-12T12:12:44.846Z,49.50
2018-08-12T12:15:14.518Z,49.50
2018-08-12T12:17:43.786Z,49.70
2018-08-12T12:20:13.669Z,49.80
2018-08-12T12:22:43.212Z,49.80
2018-08-12T12:25:14.063Z,49.70
2018-08-12T12:27:42.902Z,49.90
2018-08-12T12:30:17.614Z,49.90
2018-08-12T12:32:47.181Z,50.10
2018-08-12T12:35:16.003Z,50.10
2018-08-12T12:37:44.948Z,50.30
2018-08-12T12:40:15.578Z,50.30
2018-08-12T12:42:45.340Z,50.30
2018-08-12T12:45:14.818Z,50.60
2018-08-12T12:47:44.028Z,50.30
2018-08-12T12:50:16.849Z,50.40
2018-08-12T12:52:46.313Z,51.20
2018-08-12T12:55:16.202Z,50.50
2018-08-12T12:57:45.033Z,50.70
2018-08-12T13:00:16.531Z,50.60
2018-08-12T13:02:45.581Z,50.70
2018-08-12T13:05:16.867Z,50.80
2018-08-12T13:07:46.848Z,50.80
2018-08-12T13:10:16.814Z,50.90
2018-08-12T13:12:45.701Z,50.80
2018-08-12T13:15:15.556Z,51.00
2018-08-12T13:17:44.452Z,50.80
2018-08-12T13:20:15.938Z,51.00
2018-08-12T13:22:45.995Z,51.20
2018-08-12T13:25:16.888Z,50.90
2018-08-12T13:27:45.998Z,50.50
2018-08-12T13:30:16.024Z,50.10
2018-08-12T13:32:45.885Z,50.00
2018-08-12T13:35:14.731Z,50.00
2018-08-12T13:37:43.707Z,49.90
2018-08-12T13:40:14.426Z,49.70
2018-08-12T13:42:44.214Z,49.00
2018-08-12T13:45:13.839Z,48.70
2018-08-12T13:47:44.224Z,48.30
2018-08-12T13:50:17.690Z,48.50
2018-08-12T13:52:47.232Z,47.60
2018-08-12T13:55:16.232Z,47.10
2018-08-12T13:57:45.479Z,46.90
2018-08-12T14:00:20.171Z,46.30
2018-08-12T14:02:49.069Z,46.00
2018-08-12T14:05:18.771Z,46.60
2018-08-12T14:07:48.273Z,46.00
2018-08-12T14:10:17.098Z,46.00
2018-08-12T14:12:45.915Z,45.90
2018-08-12T14:15:17.161Z,45.80
2018-08-12T14:17:47.172Z,45.80
2018-08-12T14:20:17.777Z,45.80
2018-08-12T14:22:46.641Z,45.40
2018-08-12T14:25:15.484Z,45.40
2018-08-12T14:27:44.903Z,45.20
2018-08-12T14:30:18.383Z,45.00
2018-08-12T14:32:48.037Z,44.70
2018-08-12T14:35:16.961Z,44.70
2018-08-12T14:37:45.864Z,44.60
2018-08-12T14:40:15.395Z,44.70
2018-08-12T14:42:44.619Z,44.70
2018-08-12T14:45:14.806Z,45.00
2018-08-12T14:47:44.604Z,45.40
2018-08-12T14:50:17.553Z,45.00
2018-08-12T14:52:46.421Z,44.60
2018-08-12T14:55:16.449Z,44.60
2018-08-12T14:57:45.305Z,44.30
2018-08-12T15:00:16.203Z,44.90
2018-08-12T15:02:46.192Z,44.90
2018-08-12T15:05:15.020Z,44.50
2018-08-12T15:07:43.920Z,44.70
2018-08-12T15:10:13.192Z,44.60
2018-08-12T15:12:43.016Z,44.90
2018-08-12T15:15:13.366Z,44.90
2018-08-12T15:17:43.455Z,45.20
2018-08-12T15:20:12.860Z,45.60
2018-08-12T15:22:41.959Z,45.70
2018-08-12T15:25:13.849Z,45.80
2018-08-12T15:27:43.101Z,46.00
2018-08-12T15:30:11.933Z,46.10
2018-08-12T15:32:40.776Z,46.10
2018-08-12T15:35:10.181Z,46.30
2018-08-12T15:37:39.042Z,46.20
2018-08-12T15:40:10.177Z,46.30
2018-08-12T15:42:39.377Z,46.30
2018-08-12T15:45:10.874Z,46.30
2018-08-12T15:47:40.220Z,46.20
2018-08-12T15:50:10.048Z,46.20
2018-08-12T15:52:39.360Z,46.30
2018-08-12T15:55:08.856Z,46.30
2018-08-12T15:57:37.754Z,46.40
2018-08-12T16:00:10.908Z,46.40
2018-08-12T16:02:39.740Z,46.40
2018-08-12T16:05:08.572Z,46.30
2018-08-12T16:07:37.713Z,46.40
2018-08-12T16:10:09.781Z,46.40
2018-08-12T16:12:38.644Z,46.30
2018-08-12T16:15:09.647Z,46.40
2018-08-12T16:17:39.092Z,46.40
2018-08-12T16:20:08.474Z,46.40
2018-08-12T16:22:37.676Z,46.40
2018-08-12T16:25:09.989Z,46.20
2018-08-12T16:27:39.146Z,46.10
2018-08-12T16:30:09.595Z,46.40
2018-08-12T16:32:39.183Z,46.30
2018-08-12T16:35:09.689Z,46.40
2018-08-12T16:37:38.499Z,46.20
2018-08-12T16:40:09.123Z,46.30
2018-08-12T16:42:37.946Z,46.90
2018-08-12T16:45:07.984Z,46.20
2018-08-12T16:47:36.865Z,46.30
2018-08-12T16:50:06.780Z,46.10
2018-08-12T16:52:35.639Z,46.20
2018-08-12T16:55:05.379Z,46.30
2018-08-12T16:57:34.294Z,46.30
2018-08-12T17:00:03.131Z,46.40
2018-08-12T17:02:32.043Z,46.90
2018-08-12T17:05:00.851Z,46.20
2018-08-12T17:07:29.669Z,46.30
2018-08-12T17:09:58.562Z,46.30
2018-08-12T17:12:27.366Z,46.30
2018-08-12T17:14:56.205Z,46.20
2018-08-12T17:17:25.120Z,46.20
2018-08-12T17:19:53.936Z,46.30
2018-08-12T17:22:22.876Z,46.30
2018-08-12T17:24:51.708Z,46.40
2018-08-12T17:27:20.552Z,46.50
2018-08-12T17:29:49.388Z,46.60
2018-08-12T17:32:18.259Z,46.80
2018-08-12T17:34:47.129Z,46.80
2018-08-12T17:37:15.967Z,46.90
2018-08-12T17:39:44.828Z,46.90
2018-08-12T17:42:13.655Z,47.00
2018-08-12T17:44:42.492Z,47.10
2018-08-12T17:47:11.421Z,47.20
2018-08-12T17:49:40.353Z,47.20
2018-08-12T17:52:09.276Z,47.30
2018-08-12T17:54:38.212Z,47.40
2018-08-12T17:57:07.054Z,47.50
2018-08-12T17:59:35.908Z,47.60
2018-08-12T18:02:04.793Z,47.60
2018-08-12T18:04:33.975Z,47.60
2018-08-12T18:07:02.826Z,47.70
2018-08-12T18:09:31.690Z,47.90
2018-08-12T18:12:00.508Z,48.00
2018-08-12T18:14:29.319Z,48.00
2018-08-12T18:16:58.168Z,48.20
2018-08-12T18:19:26.983Z,48.30
2018-08-12T18:21:55.846Z,48.40
2018-08-12T18:24:24.732Z,48.40
2018-08-12T18:26:53.580Z,48.50
2018-08-12T18:29:22.413Z,48.80
2018-08-12T18:31:51.881Z,48.70
2018-08-12T18:34:20.700Z,48.90
2018-08-12T18:36:49.540Z,49.00
2018-08-12T18:39:18.406Z,49.20
2018-08-12T18:41:47.264Z,49.30
2018-08-12T18:44:16.763Z,49.40
2018-08-12T18:46:45.673Z,49.50
2018-08-12T18:49:14.493Z,49.70
2018-08-12T18:51:43.308Z,49.90
2018-08-12T18:54:12.177Z,50.00
2018-08-12T18:56:41.029Z,50.10
2018-08-12T18:59:09.920Z,50.30
2018-08-12T19:01:38.752Z,50.40
2018-08-12T19:04:07.624Z,50.60
2018-08-12T19:06:36.550Z,50.60
2018-08-12T19:09:08.745Z,50.70
2018-08-12T19:11:37.618Z,50.80
2018-08-12T19:14:06.925Z,51.00
2018-08-12T19:16:35.767Z,51.00
2018-08-12T19:19:04.847Z,51.10
2018-08-12T19:21:33.683Z,51.20
2018-08-12T19:24:02.483Z,51.30
2018-08-12T19:26:31.371Z,51.40
2018-08-12T19:29:00.280Z,51.50
2018-08-12T19:31:29.154Z,51.50
2018-08-12T19:33:58.100Z,51.60
2018-08-12T19:36:27.079Z,51.70
2018-08-12T19:38:55.902Z,51.80
2018-08-12T19:41:24.789Z,51.00
2018-08-12T19:43:53.635Z,51.40
2018-08-12T19:46:22.711Z,52.00
2018-08-12T19:48:51.568Z,53.00
2018-08-12T19:51:20.465Z,53.10
2018-08-12T19:53:49.308Z,53.60
2018-08-12T19:56:18.142Z,53.30
2018-08-12T19:58:47.011Z,53.80
2018-08-12T20:01:15.828Z,53.60
2018-08-12T20:03:44.713Z,53.70
2018-08-12T20:06:13.596Z,53.00
2018-08-12T20:08:42.423Z,53.00
2018-08-12T20:11:11.233Z,53.50
2018-08-12T20:13:40.113Z,53.00
2018-08-12T20:16:09.422Z,53.20
2018-08-12T20:18:38.348Z,52.80
2018-08-12T20:21:07.141Z,53.20
2018-08-12T20:23:36.021Z,53.20
2018-08-12T20:26:04.848Z,56.10
2018-08-12T20:28:33.732Z,56.10
2018-08-12T20:31:02.570Z,56.30
2018-08-12T20:33:31.411Z,55.60
2018-08-12T20:36:00.286Z,56.40
2018-08-12T20:38:29.123Z,56.80
2018-08-12T20:40:57.960Z,56.60
2018-08-12T20:43:26.869Z,56.40
2018-08-12T20:45:55.731Z,56.60
2018-08-12T20:48:24.567Z,56.70
2018-08-12T20:50:53.474Z,56.70
2018-08-12T20:53:22.293Z,57.50
2018-08-12T20:55:51.109Z,57.00
2018-08-12T20:58:19.970Z,57.20
2018-08-12T21:00:48.797Z,57.30
2018-08-12T21:03:17.625Z,57.00
2018-08-12T21:05:46.503Z,57.60
2018-08-12T21:08:15.330Z,58.00
2018-08-12T21:10:44.166Z,57.10
2018-08-12T21:13:13.043Z,57.70
2018-08-12T21:15:41.873Z,58.70
2018-08-12T21:18:10.687Z,57.80
2018-08-12T21:20:39.553Z,57.90
2018-08-12T21:23:08.392Z,57.70
2018-08-12T21:25:37.196Z,58.20
2018-08-12T21:28:06.911Z,58.20
2018-08-12T21:30:35.714Z,57.90
2018-08-12T21:33:05.090Z,58.20
2018-08-12T21:35:33.961Z,57.90
2018-08-12T21:38:02.774Z,58.30
2018-08-12T21:40:31.604Z,58.40
2018-08-12T21:43:00.526Z,58.30
2018-08-12T21:45:29.352Z,58.10
2018-08-12T21:47:58.287Z,58.60
2018-08-12T21:50:27.080Z,58.00
2018-08-12T21:52:55.892Z,58.00
2018-08-12T21:55:24.710Z,58.30
2018-08-12T21:57:53.566Z,58.40
2018-08-12T22:00:22.641Z,58.70
2018-08-12T22:02:51.454Z,58.70
2018-08-12T22:05:20.318Z,58.30
2018-08-12T22:07:49.126Z,58.30
2018-08-12T22:10:17.931Z,57.60
2018-08-12T22:12:46.968Z,57.50
2018-08-12T22:15:15.785Z,58.00
2018-08-12T22:17:44.599Z,57.90
2018-08-12T22:20:13.980Z,57.70
2018-08-12T22:22:42.787Z,57.80
2018-08-12T22:25:11.595Z,57.80
2018-08-12T22:27:40.464Z,57.70
2018-08-12T22:30:13.062Z,58.60
2018-08-12T22:32:41.984Z,57.40
2018-08-12T22:35:10.818Z,57.70
2018-08-12T22:37:39.629Z,57.40
2018-08-12T22:40:09.101Z,58.00
2018-08-12T22:42:38.251Z,57.30
2018-08-12T22:45:09.215Z,57.50
2018-08-12T22:47:38.012Z,57.20
2018-08-12T22:50:07.699Z,57.40
2018-08-12T22:52:36.640Z,57.80
2018-08-12T22:55:06.231Z,57.70
2018-08-12T22:57:35.109Z,57.70
2018-08-12T23:00:05.788Z,57.10
2018-08-12T23:02:34.715Z,57.10
2018-08-12T23:05:03.734Z,57.20
2018-08-12T23:07:32.603Z,57.00
2018-08-12T23:10:01.422Z,57.60
2018-08-12T23:12:30.237Z,57.60
2018-08-12T23:17:15.564Z,57.80
2018-08-12T23:19:44.439Z,57.40
2018-08-12T23:22:13.272Z,57.80
2018-08-12T23:24:42.123Z,57.20
2018-08-12T23:27:10.946Z,57.40
2018-08-12T23:29:39.750Z,57.70
2018-08-12T23:32:08.595Z,57.50
2018-08-12T23:34:37.426Z,57.60
2018-08-12T23:37:06.240Z,57.50
2018-08-12T23:39:35.206Z,57.10
2018-08-12T23:42:04.012Z,57.30
2018-08-12T23:44:32.835Z,57.60
2018-08-12T23:47:01.687Z,57.70
2018-08-12T23:49:30.513Z,57.30
2018-08-12T23:51:59.356Z,57.50
2018-08-12T23:54:28.216Z,57.20
2018-08-12T23:56:57.048Z,57.40
2018-08-12T23:59:25.863Z,57.10
